sensor_id;sensor_type;location;lat;lon;timestamp;pressure;altitude;pressure_sealevel;temperature;humidity
36386;BME280;24125;47.482;8.770;2023-06-26T00:01:55;96342.53;;;21.30;77.05
36386;BME280;24125;47.482;8.770;2023-06-26T00:04:28;96335.19;;;21.27;77.12
36386;BME280;24125;47.482;8.770;2023-06-26T00:07:00;96332.09;;;21.25;77.17
36386;BME280;24125;47.482;8.770;2023-06-26T00:09:33;96342.94;;;21.25;77.27
36386;BME280;24125;47.482;8.770;2023-06-26T00:12:08;96344.09;;;21.21;77.18
36386;BME280;24125;47.482;8.770;2023-06-26T00:14:41;96332.88;;;21.19;77.13
36386;BME280;24125;47.482;8.770;2023-06-26T00:17:14;96334.41;;;21.16;77.14
36386;BME280;24125;47.482;8.770;2023-06-26T00:19:46;96339.44;;;21.14;77.33
36386;BME280;24125;47.482;8.770;2023-06-26T00:22:20;96342.91;;;21.15;77.57
36386;BME280;24125;47.482;8.770;2023-06-26T00:24:53;96342.91;;;21.15;77.68
36386;BME280;24125;47.482;8.770;2023-06-26T00:27:28;96341.75;;;21.16;77.97
36386;BME280;24125;47.482;8.770;2023-06-26T00:30:01;96335.59;;;21.19;78.19
36386;BME280;24125;47.482;8.770;2023-06-26T00:32:33;96349.16;;;21.22;78.32
36386;BME280;24125;47.482;8.770;2023-06-26T00:35:10;96347.22;;;21.26;78.44
36386;BME280;24125;47.482;8.770;2023-06-26T00:37:43;96350.31;;;21.32;78.84
36386;BME280;24125;47.482;8.770;2023-06-26T00:40:16;96358.03;;;21.37;78.97
36386;BME280;24125;47.482;8.770;2023-06-26T00:42:51;96353.78;;;21.43;79.12
36386;BME280;24125;47.482;8.770;2023-06-26T00:45:24;96351.03;;;21.50;79.10
36386;BME280;24125;47.482;8.770;2023-06-26T00:48:12;96356.06;;;21.55;79.16
36386;BME280;24125;47.482;8.770;2023-06-26T00:50:45;96359.19;;;21.61;79.16
36386;BME280;24125;47.482;8.770;2023-06-26T00:53:18;96357.59;;;21.63;78.91
36386;BME280;24125;47.482;8.770;2023-06-26T00:55:50;96371.97;;;21.67;78.86
36386;BME280;24125;47.482;8.770;2023-06-26T00:58:25;96367.31;;;21.68;78.62
36386;BME280;24125;47.482;8.770;2023-06-26T01:00:58;96357.59;;;21.67;78.43
36386;BME280;24125;47.482;8.770;2023-06-26T01:03:32;96361.88;;;21.64;77.96
36386;BME280;24125;47.482;8.770;2023-06-26T01:06:05;96362.25;;;21.63;77.85
36386;BME280;24125;47.482;8.770;2023-06-26T01:08:38;96368.88;;;21.58;77.63
36386;BME280;24125;47.482;8.770;2023-06-26T01:11:11;96352.22;;;21.53;77.46
36386;BME280;24125;47.482;8.770;2023-06-26T01:13:46;96363.47;;;21.48;77.17
36386;BME280;24125;47.482;8.770;2023-06-26T01:16:21;96362.31;;;21.41;77.14
36386;BME280;24125;47.482;8.770;2023-06-26T01:18:55;96363.09;;;21.35;77.01
36386;BME280;24125;47.482;8.770;2023-06-26T01:21:28;96361.16;;;21.28;77.01
36386;BME280;24125;47.482;8.770;2023-06-26T01:24:05;96354.97;;;21.21;76.79
36386;BME280;24125;47.482;8.770;2023-06-26T01:26:42;96354.16;;;21.13;76.99
36386;BME280;24125;47.482;8.770;2023-06-26T01:29:16;96358.44;;;21.07;76.84
36386;BME280;24125;47.482;8.770;2023-06-26T01:31:50;96363.88;;;21.00;76.65
36386;BME280;24125;47.482;8.770;2023-06-26T01:34:23;96366.59;;;20.93;76.58
36386;BME280;24125;47.482;8.770;2023-06-26T01:36:57;96356.50;;;20.86;76.60
36386;BME280;24125;47.482;8.770;2023-06-26T01:39:30;96361.13;;;20.79;76.81
36386;BME280;24125;47.482;8.770;2023-06-26T01:42:04;96359.97;;;20.73;76.59
36386;BME280;24125;47.482;8.770;2023-06-26T01:44:39;96356.09;;;20.66;76.76
36386;BME280;24125;47.482;8.770;2023-06-26T01:47:16;96364.63;;;20.58;76.71
36386;BME280;24125;47.482;8.770;2023-06-26T01:49:55;96357.22;;;20.51;76.53
36386;BME280;24125;47.482;8.770;2023-06-26T01:52:31;96356.44;;;20.44;76.68
36386;BME280;24125;47.482;8.770;2023-06-26T01:55:10;96359.91;;;20.37;76.71
36386;BME280;24125;47.482;8.770;2023-06-26T01:57:46;96361.81;;;20.29;76.78
36386;BME280;24125;47.482;8.770;2023-06-26T02:00:20;96362.94;;;20.25;76.77
36386;BME280;24125;47.482;8.770;2023-06-26T02:02:53;96364.84;;;20.17;76.80
36386;BME280;24125;47.482;8.770;2023-06-26T02:05:26;96365.25;;;20.12;76.83
36386;BME280;24125;47.482;8.770;2023-06-26T02:08:01;96363.66;;;20.08;76.97
36386;BME280;24125;47.482;8.770;2023-06-26T02:10:34;96366.75;;;20.03;77.19
36386;BME280;24125;47.482;8.770;2023-06-26T02:13:09;96368.66;;;19.98;77.16
36386;BME280;24125;47.482;8.770;2023-06-26T02:15:42;96369.03;;;19.93;77.20
36386;BME280;24125;47.482;8.770;2023-06-26T02:18:14;96361.66;;;19.90;77.21
36386;BME280;24125;47.482;8.770;2023-06-26T02:20:47;96359.72;;;19.87;77.40
36386;BME280;24125;47.482;8.770;2023-06-26T02:23:20;96360.84;;;19.83;77.41
36386;BME280;24125;47.482;8.770;2023-06-26T02:25:53;96359.69;;;19.80;77.49
36386;BME280;24125;47.482;8.770;2023-06-26T02:28:27;96359.28;;;19.78;77.54
36386;BME280;24125;47.482;8.770;2023-06-26T02:31:02;96363.53;;;19.76;77.96
36386;BME280;24125;47.482;8.770;2023-06-26T02:33:36;96356.94;;;19.73;77.71
36386;BME280;24125;47.482;8.770;2023-06-26T02:36:10;96356.94;;;19.73;77.75
36386;BME280;24125;47.482;8.770;2023-06-26T02:38:43;96358.88;;;19.69;77.93
36386;BME280;24125;47.482;8.770;2023-06-26T02:41:16;96358.09;;;19.69;77.84
36386;BME280;24125;47.482;8.770;2023-06-26T02:43:50;96355.38;;;19.69;77.89
36386;BME280;24125;47.482;8.770;2023-06-26T02:46:23;96353.03;;;19.67;78.11
36386;BME280;24125;47.482;8.770;2023-06-26T02:48:56;96352.25;;;19.67;77.78
36386;BME280;24125;47.482;8.770;2023-06-26T02:51:29;96368.13;;;19.68;78.09
36386;BME280;24125;47.482;8.770;2023-06-26T02:54:01;96367.00;;;19.69;78.54
36386;BME280;24125;47.482;8.770;2023-06-26T02:56:34;96365.84;;;19.70;78.50
36386;BME280;24125;47.482;8.770;2023-06-26T02:59:18;96361.97;;;19.71;78.71
36386;BME280;24125;47.482;8.770;2023-06-26T03:01:51;96365.06;;;19.73;78.54
36386;BME280;24125;47.482;8.770;2023-06-26T03:04:24;96369.31;;;19.74;78.81
36386;BME280;24125;47.482;8.770;2023-06-26T03:06:57;96359.25;;;19.75;78.94
36386;BME280;24125;47.482;8.770;2023-06-26T03:09:30;96368.56;;;19.77;79.00
36386;BME280;24125;47.482;8.770;2023-06-26T03:12:02;96371.69;;;19.79;79.00
36386;BME280;24125;47.482;8.770;2023-06-26T03:14:37;96370.13;;;19.82;78.84
36386;BME280;24125;47.482;8.770;2023-06-26T03:17:09;96369.34;;;19.81;79.13
36386;BME280;24125;47.482;8.770;2023-06-26T03:19:42;96369.75;;;19.83;79.03
36386;BME280;24125;47.482;8.770;2023-06-26T03:22:16;96372.50;;;19.87;79.09
36386;BME280;24125;47.482;8.770;2023-06-26T03:24:49;96367.84;;;19.87;78.88
36386;BME280;24125;47.482;8.770;2023-06-26T03:27:22;96378.69;;;19.87;78.86
36386;BME280;24125;47.482;8.770;2023-06-26T03:29:56;96376.34;;;19.89;79.02
36386;BME280;24125;47.482;8.770;2023-06-26T03:32:29;96375.59;;;19.89;78.99
36386;BME280;24125;47.482;8.770;2023-06-26T03:35:01;96380.63;;;19.90;78.96
36386;BME280;24125;47.482;8.770;2023-06-26T03:37:37;96382.97;;;19.92;78.95
36386;BME280;24125;47.482;8.770;2023-06-26T03:40:12;96382.97;;;19.92;78.96
36386;BME280;24125;47.482;8.770;2023-06-26T03:42:45;96383.72;;;19.92;79.09
36386;BME280;24125;47.482;8.770;2023-06-26T03:45:19;96385.28;;;19.93;79.05
36386;BME280;24125;47.482;8.770;2023-06-26T03:47:52;96388.78;;;19.94;78.91
36386;BME280;24125;47.482;8.770;2023-06-26T03:50:25;96389.56;;;19.94;78.93
36386;BME280;24125;47.482;8.770;2023-06-26T03:52:57;96389.97;;;19.96;78.88
36386;BME280;24125;47.482;8.770;2023-06-26T03:55:30;96391.53;;;19.98;79.03
36386;BME280;24125;47.482;8.770;2023-06-26T03:58:03;96392.25;;;19.98;79.12
36386;BME280;24125;47.482;8.770;2023-06-26T04:00:37;96388.81;;;20.01;79.22
36386;BME280;24125;47.482;8.770;2023-06-26T04:03:11;96393.06;;;20.02;79.12
36386;BME280;24125;47.482;8.770;2023-06-26T04:05:44;96387.28;;;20.04;79.53
36386;BME280;24125;47.482;8.770;2023-06-26T04:08:17;96385.75;;;20.06;79.21
36386;BME280;24125;47.482;8.770;2023-06-26T04:10:51;96393.47;;;20.08;79.31
36386;BME280;24125;47.482;8.770;2023-06-26T04:13:24;96391.94;;;20.10;79.44
36386;BME280;24125;47.482;8.770;2023-06-26T04:15:58;96393.91;;;20.13;79.50
36386;BME280;24125;47.482;8.770;2023-06-26T04:18:31;96395.47;;;20.14;79.45
36386;BME280;24125;47.482;8.770;2023-06-26T04:21:05;96406.66;;;20.16;79.48
36386;BME280;24125;47.482;8.770;2023-06-26T04:23:38;96407.47;;;20.20;79.49
36386;BME280;24125;47.482;8.770;2023-06-26T04:26:11;96417.94;;;20.22;79.51
36386;BME280;24125;47.482;8.770;2023-06-26T04:28:44;96410.19;;;20.24;79.65
36386;BME280;24125;47.482;8.770;2023-06-26T04:31:19;96411.38;;;20.26;79.55
36386;BME280;24125;47.482;8.770;2023-06-26T04:33:52;96410.59;;;20.29;79.58
36386;BME280;24125;47.482;8.770;2023-06-26T04:36:26;96414.50;;;20.32;79.66
36386;BME280;24125;47.482;8.770;2023-06-26T04:39:00;96409.50;;;20.38;79.92
36386;BME280;24125;47.482;8.770;2023-06-26T04:41:32;96409.53;;;20.45;80.37
36386;BME280;24125;47.482;8.770;2023-06-26T04:44:06;96413.81;;;20.56;81.50
36386;BME280;24125;47.482;8.770;2023-06-26T04:46:40;96407.25;;;20.79;82.71
36386;BME280;24125;47.482;8.770;2023-06-26T04:49:13;96413.13;;;21.09;84.36
36386;BME280;24125;47.482;8.770;2023-06-26T04:51:49;96407.69;;;21.48;86.23
36386;BME280;24125;47.482;8.770;2023-06-26T04:54:22;96407.59;;;21.94;87.20
36386;BME280;24125;47.482;8.770;2023-06-26T04:56:55;96411.31;;;22.43;88.19
36386;BME280;24125;47.482;8.770;2023-06-26T04:59:28;96414.94;;;22.95;88.66
36386;BME280;24125;47.482;8.770;2023-06-26T05:02:02;96407.50;;;23.47;88.60
36386;BME280;24125;47.482;8.770;2023-06-26T05:04:36;96407.78;;;24.01;88.34
36386;BME280;24125;47.482;8.770;2023-06-26T05:07:09;96405.59;;;24.53;87.87
36386;BME280;24125;47.482;8.770;2023-06-26T05:09:42;96404.50;;;25.04;87.76
36386;BME280;24125;47.482;8.770;2023-06-26T05:12:15;96410.69;;;25.55;86.87
36386;BME280;24125;47.482;8.770;2023-06-26T05:14:48;96400.50;;;26.02;86.60
36386;BME280;24125;47.482;8.770;2023-06-26T05:17:22;96406.19;;;26.51;86.14
36386;BME280;24125;47.482;8.770;2023-06-26T05:19:55;96410.69;;;26.97;85.40
36386;BME280;24125;47.482;8.770;2023-06-26T05:22:28;96407.25;;;27.41;84.88
36386;BME280;24125;47.482;8.770;2023-06-26T05:25:01;96407.72;;;27.85;84.13
36386;BME280;24125;47.482;8.770;2023-06-26T05:27:35;96412.09;;;28.28;83.71
36386;BME280;24125;47.482;8.770;2023-06-26T05:30:08;96408.97;;;28.67;83.15
36386;BME280;24125;47.482;8.770;2023-06-26T05:32:42;96411.63;;;29.09;82.80
36386;BME280;24125;47.482;8.770;2023-06-26T05:35:18;96409.94;;;29.49;82.18
36386;BME280;24125;47.482;8.770;2023-06-26T05:37:52;96410.63;;;29.88;81.50
36386;BME280;24125;47.482;8.770;2023-06-26T05:40:26;96410.16;;;30.24;81.12
36386;BME280;24125;47.482;8.770;2023-06-26T05:42:59;96407.19;;;30.62;80.58
36386;BME280;24125;47.482;8.770;2023-06-26T05:45:32;96402.78;;;30.95;80.01
36386;BME280;24125;47.482;8.770;2023-06-26T05:48:06;96396.31;;;31.29;79.36
36386;BME280;24125;47.482;8.770;2023-06-26T05:50:40;96402.84;;;31.63;78.56
36386;BME280;24125;47.482;8.770;2023-06-26T05:53:13;96400.69;;;31.94;78.17
36386;BME280;24125;47.482;8.770;2023-06-26T05:55:46;96406.88;;;32.26;77.89
36386;BME280;24125;47.482;8.770;2023-06-26T05:58:19;96397.72;;;32.52;77.31
36386;BME280;24125;47.482;8.770;2023-06-26T06:00:52;96404.75;;;32.81;76.49
36386;BME280;24125;47.482;8.770;2023-06-26T06:03:27;96405.09;;;33.07;76.28
36386;BME280;24125;47.482;8.770;2023-06-26T06:06:00;96401.47;;;33.33;76.02
36386;BME280;24125;47.482;8.770;2023-06-26T06:08:33;96403.00;;;33.58;75.75
36386;BME280;24125;47.482;8.770;2023-06-26T06:11:06;96409.81;;;33.81;75.54
36386;BME280;24125;47.482;8.770;2023-06-26T06:13:39;96397.63;;;34.02;74.36
36386;BME280;24125;47.482;8.770;2023-06-26T06:16:12;96399.16;;;34.18;73.77
36386;BME280;24125;47.482;8.770;2023-06-26T06:18:46;96400.47;;;34.32;73.85
36386;BME280;24125;47.482;8.770;2023-06-26T06:21:18;96396.38;;;34.42;73.32
36386;BME280;24125;47.482;8.770;2023-06-26T06:23:51;96401.06;;;34.51;72.21
36386;BME280;24125;47.482;8.770;2023-06-26T06:26:24;96399.59;;;34.55;72.48
36386;BME280;24125;47.482;8.770;2023-06-26T06:28:57;96399.59;;;34.55;72.74
36386;BME280;24125;47.482;8.770;2023-06-26T06:31:30;96398.06;;;34.54;72.27
36386;BME280;24125;47.482;8.770;2023-06-26T06:34:04;96394.16;;;34.46;71.54
36386;BME280;24125;47.482;8.770;2023-06-26T06:36:36;96392.16;;;34.32;70.46
36386;BME280;24125;47.482;8.770;2023-06-26T06:39:09;96387.53;;;34.14;70.27
36386;BME280;24125;47.482;8.770;2023-06-26T06:41:42;96402.59;;;33.98;70.66
36386;BME280;24125;47.482;8.770;2023-06-26T06:44:15;96387.34;;;33.79;70.52
36386;BME280;24125;47.482;8.770;2023-06-26T06:46:47;96396.53;;;33.61;70.87
36386;BME280;24125;47.482;8.770;2023-06-26T06:49:23;96398.19;;;33.44;71.13
36386;BME280;24125;47.482;8.770;2023-06-26T06:51:56;96390.28;;;33.28;71.19
36386;BME280;24125;47.482;8.770;2023-06-26T06:54:29;96397.69;;;33.13;70.66
36386;BME280;24125;47.482;8.770;2023-06-26T06:57:02;96398.38;;;32.98;71.24
36386;BME280;24125;47.482;8.770;2023-06-26T06:59:35;96398.28;;;32.84;71.27
36386;BME280;24125;47.482;8.770;2023-06-26T07:02:07;96398.03;;;32.73;71.93
36386;BME280;24125;47.482;8.770;2023-06-26T07:04:42;96401.72;;;32.60;71.17
36386;BME280;24125;47.482;8.770;2023-06-26T07:07:19;96394.38;;;32.48;71.52
36386;BME280;24125;47.482;8.770;2023-06-26T07:09:52;96409.44;;;32.38;72.52
36386;BME280;24125;47.482;8.770;2023-06-26T07:12:25;96406.38;;;32.27;71.63
36386;BME280;24125;47.482;8.770;2023-06-26T07:14:58;96406.38;;;32.18;71.30
36386;BME280;24125;47.482;8.770;2023-06-26T07:17:30;96408.38;;;32.08;71.74
36386;BME280;24125;47.482;8.770;2023-06-26T07:20:06;96413.91;;;31.99;72.20
36386;BME280;24125;47.482;8.770;2023-06-26T07:22:40;96404.84;;;31.90;72.94
36386;BME280;24125;47.482;8.770;2023-06-26T07:25:13;96407.16;;;31.82;73.80
36386;BME280;24125;47.482;8.770;2023-06-26T07:27:46;96408.69;;;31.74;73.20
36386;BME280;24125;47.482;8.770;2023-06-26T07:30:19;96409.72;;;31.67;72.68
36386;BME280;24125;47.482;8.770;2023-06-26T07:32:52;96416.75;;;31.59;71.99
36386;BME280;24125;47.482;8.770;2023-06-26T07:35:26;96411.53;;;31.52;71.94
36386;BME280;24125;47.482;8.770;2023-06-26T07:37:59;96402.66;;;31.48;72.74
36386;BME280;24125;47.482;8.770;2023-06-26T07:40:31;96411.06;;;31.44;73.73
36386;BME280;24125;47.482;8.770;2023-06-26T07:43:04;96402.91;;;31.41;73.60
36386;BME280;24125;47.482;8.770;2023-06-26T07:45:37;96399.88;;;31.39;73.95
36386;BME280;24125;47.482;8.770;2023-06-26T07:48:10;96402.31;;;31.37;74.78
36386;BME280;24125;47.482;8.770;2023-06-26T07:50:44;96407.06;;;31.36;74.18
36386;BME280;24125;47.482;8.770;2023-06-26T07:53:17;96404.31;;;31.36;74.50
36386;BME280;24125;47.482;8.770;2023-06-26T07:55:49;96410.59;;;31.37;75.04
36386;BME280;24125;47.482;8.770;2023-06-26T07:58:22;96411.03;;;31.35;75.21
36386;BME280;24125;47.482;8.770;2023-06-26T08:00:57;96413.34;;;31.37;74.49
36386;BME280;24125;47.482;8.770;2023-06-26T08:03:29;96412.91;;;31.38;75.06
36386;BME280;24125;47.482;8.770;2023-06-26T08:06:07;96412.13;;;31.38;75.81
36386;BME280;24125;47.482;8.770;2023-06-26T08:08:43;96410.91;;;31.39;76.86
36386;BME280;24125;47.482;8.770;2023-06-26T08:11:15;96408.44;;;31.41;76.61
36386;BME280;24125;47.482;8.770;2023-06-26T08:13:48;96411.50;;;31.43;75.29
36386;BME280;24125;47.482;8.770;2023-06-26T08:16:21;96411.06;;;31.44;75.75
36386;BME280;24125;47.482;8.770;2023-06-26T08:18:54;96414.59;;;31.45;75.96
36386;BME280;24125;47.482;8.770;2023-06-26T08:21:28;96418.44;;;31.47;75.79
36386;BME280;24125;47.482;8.770;2023-06-26T08:24:01;96414.41;;;31.48;73.98
36386;BME280;24125;47.482;8.770;2023-06-26T08:26:34;96411.22;;;31.50;75.56
36386;BME280;24125;47.482;8.770;2023-06-26T08:29:07;96407.22;;;31.51;75.68
36386;BME280;24125;47.482;8.770;2023-06-26T08:31:43;96410.31;;;31.53;76.30
36386;BME280;24125;47.482;8.770;2023-06-26T08:34:16;96400.34;;;31.56;75.82
36386;BME280;24125;47.482;8.770;2023-06-26T08:36:50;96410.47;;;31.59;75.42
36386;BME280;24125;47.482;8.770;2023-06-26T08:39:23;96404.84;;;31.62;76.88
36386;BME280;24125;47.482;8.770;2023-06-26T08:41:56;96410.19;;;31.66;74.74
36386;BME280;24125;47.482;8.770;2023-06-26T08:44:29;96411.28;;;31.68;74.92
36386;BME280;24125;47.482;8.770;2023-06-26T08:47:02;96408.38;;;31.72;74.63
36386;BME280;24125;47.482;8.770;2023-06-26T08:49:37;96415.25;;;31.76;76.71
36386;BME280;24125;47.482;8.770;2023-06-26T08:52:18;96402.88;;;31.81;76.99
36386;BME280;24125;47.482;8.770;2023-06-26T08:54:52;96399.16;;;31.84;76.16
36386;BME280;24125;47.482;8.770;2023-06-26T08:57:27;96401.00;;;31.87;75.98
36386;BME280;24125;47.482;8.770;2023-06-26T09:00:00;96396.56;;;31.90;75.65
36386;BME280;24125;47.482;8.770;2023-06-26T09:02:33;96395.63;;;31.93;75.03
36386;BME280;24125;47.482;8.770;2023-06-26T09:05:06;96402.56;;;31.97;74.99
36386;BME280;24125;47.482;8.770;2023-06-26T09:07:40;96400.09;;;31.99;76.03
36386;BME280;24125;47.482;8.770;2023-06-26T09:10:14;96403.91;;;32.02;69.67
36386;BME280;24125;47.482;8.770;2023-06-26T09:12:47;96394.72;;;32.05;68.99
36386;BME280;24125;47.482;8.770;2023-06-26T09:15:19;96395.81;;;32.07;69.14
36386;BME280;24125;47.482;8.770;2023-06-26T09:17:53;96400.38;;;32.10;74.70
36386;BME280;24125;47.482;8.770;2023-06-26T09:20:28;96397.16;;;32.12;74.86
36386;BME280;24125;47.482;8.770;2023-06-26T09:23:03;96402.22;;;32.13;75.55
36386;BME280;24125;47.482;8.770;2023-06-26T09:25:37;96399.78;;;32.15;75.61
36386;BME280;24125;47.482;8.770;2023-06-26T09:28:13;96406.09;;;32.16;74.03
36386;BME280;24125;47.482;8.770;2023-06-26T09:30:46;96404.88;;;32.17;75.60
36386;BME280;24125;47.482;8.770;2023-06-26T09:33:19;96405.16;;;32.19;77.92
36386;BME280;24125;47.482;8.770;2023-06-26T09:35:53;96401.94;;;32.20;76.62
36386;BME280;24125;47.482;8.770;2023-06-26T09:38:27;96406.56;;;32.23;76.24
36386;BME280;24125;47.482;8.770;2023-06-26T09:41:00;96405.34;;;32.25;77.12
36386;BME280;24125;47.482;8.770;2023-06-26T09:43:33;96409.91;;;32.28;75.87
36386;BME280;24125;47.482;8.770;2023-06-26T09:46:08;96402.38;;;32.28;76.45
36386;BME280;24125;47.482;8.770;2023-06-26T09:48:41;96401.47;;;32.31;74.66
36386;BME280;24125;47.482;8.770;2023-06-26T09:51:15;96401.78;;;32.33;74.94
36386;BME280;24125;47.482;8.770;2023-06-26T09:53:50;96391.03;;;32.35;74.62
36386;BME280;24125;47.482;8.770;2023-06-26T09:56:23;96398.84;;;32.37;74.61
36386;BME280;24125;47.482;8.770;2023-06-26T09:58:56;96395.63;;;32.38;73.55
36386;BME280;24125;47.482;8.770;2023-06-26T10:01:30;96389.19;;;32.41;75.79
36386;BME280;24125;47.482;8.770;2023-06-26T10:04:03;96390.22;;;32.44;75.05
36386;BME280;24125;47.482;8.770;2023-06-26T10:06:38;96390.09;;;32.47;77.63
36386;BME280;24125;47.482;8.770;2023-06-26T10:09:15;96384.41;;;32.51;74.44
36386;BME280;24125;47.482;8.770;2023-06-26T10:11:51;96379.91;;;32.53;78.76
36386;BME280;24125;47.482;8.770;2023-06-26T10:14:26;96373.47;;;32.56;79.19
36386;BME280;24125;47.482;8.770;2023-06-26T10:16:59;96375.78;;;32.58;76.46
36386;BME280;24125;47.482;8.770;2023-06-26T10:19:33;96376.09;;;32.60;75.46
36386;BME280;24125;47.482;8.770;2023-06-26T10:22:07;96377.13;;;32.63;76.44
36386;BME280;24125;47.482;8.770;2023-06-26T10:24:43;96374.97;;;32.67;75.85
36386;BME280;24125;47.482;8.770;2023-06-26T10:27:18;96374.97;;;32.67;74.70
36386;BME280;24125;47.482;8.770;2023-06-26T10:29:52;96372.84;;;32.71;75.63
36386;BME280;24125;47.482;8.770;2023-06-26T10:32:26;96370.38;;;32.73;76.40
36386;BME280;24125;47.482;8.770;2023-06-26T10:34:59;96361.63;;;32.74;74.90
36386;BME280;24125;47.482;8.770;2023-06-26T10:37:40;96378.06;;;32.78;75.49
36386;BME280;24125;47.482;8.770;2023-06-26T10:40:20;96380.63;;;32.81;77.40
36386;BME280;24125;47.482;8.770;2023-06-26T10:43:05;96371.88;;;32.83;76.30
36386;BME280;24125;47.482;8.770;2023-06-26T10:45:42;96357.13;;;32.86;74.37
36386;BME280;24125;47.482;8.770;2023-06-26T10:48:15;96360.16;;;32.88;72.63
36386;BME280;24125;47.482;8.770;2023-06-26T10:50:48;96362.00;;;32.91;73.34
36386;BME280;24125;47.482;8.770;2023-06-26T10:53:24;96363.09;;;32.93;73.44
36386;BME280;24125;47.482;8.770;2023-06-26T10:56:00;96369.97;;;32.98;77.39
36386;BME280;24125;47.482;8.770;2023-06-26T10:58:41;96368.28;;;33.01;75.54
36386;BME280;24125;47.482;8.770;2023-06-26T11:01:19;96370.84;;;33.04;74.88
36386;BME280;24125;47.482;8.770;2023-06-26T11:04:06;96374.69;;;33.07;76.39
36386;BME280;24125;47.482;8.770;2023-06-26T11:06:39;96363.91;;;33.09;73.53
36386;BME280;24125;47.482;8.770;2023-06-26T11:09:13;96367.75;;;33.11;75.85
36386;BME280;24125;47.482;8.770;2023-06-26T11:12:09;96372.34;;;33.14;74.88
36386;BME280;24125;47.482;8.770;2023-06-26T11:14:41;96372.63;;;33.16;75.20
36386;BME280;24125;47.482;8.770;2023-06-26T11:17:18;96366.63;;;33.18;74.88
36386;BME280;24125;47.482;8.770;2023-06-26T11:19:51;96369.25;;;33.21;73.41
36386;BME280;24125;47.482;8.770;2023-06-26T11:22:25;96353.72;;;33.24;69.81
36386;BME280;24125;47.482;8.770;2023-06-26T11:24:59;96358.13;;;33.30;74.69
36386;BME280;24125;47.482;8.770;2023-06-26T11:27:37;96368.09;;;33.37;74.95
36386;BME280;24125;47.482;8.770;2023-06-26T11:30:10;96368.03;;;33.46;75.21
36386;BME280;24125;47.482;8.770;2023-06-26T11:32:43;96371.78;;;33.58;73.24
36386;BME280;24125;47.482;8.770;2023-06-26T11:35:21;96360.47;;;33.70;74.64
36386;BME280;24125;47.482;8.770;2023-06-26T11:37:55;96363.00;;;33.83;74.33
36386;BME280;24125;47.482;8.770;2023-06-26T11:40:28;96359.22;;;33.95;73.82
36386;BME280;24125;47.482;8.770;2023-06-26T11:43:04;96368.50;;;34.07;75.45
36386;BME280;24125;47.482;8.770;2023-06-26T11:45:37;96375.97;;;34.16;76.85
36386;BME280;24125;47.482;8.770;2023-06-26T11:48:11;96377.28;;;34.20;74.38
36386;BME280;24125;47.482;8.770;2023-06-26T11:50:44;96378.34;;;34.23;74.13
36386;BME280;24125;47.482;8.770;2023-06-26T11:53:18;96375.16;;;34.24;77.37
36386;BME280;24125;47.482;8.770;2023-06-26T11:55:51;96379.13;;;34.23;78.67
36386;BME280;24125;47.482;8.770;2023-06-26T11:58:25;96363.91;;;34.19;76.13
36386;BME280;24125;47.482;8.770;2023-06-26T12:00:57;96364.59;;;34.14;73.14
36386;BME280;24125;47.482;8.770;2023-06-26T12:03:31;96359.69;;;34.08;72.82
36386;BME280;24125;47.482;8.770;2023-06-26T12:06:05;96365.44;;;34.05;76.66
36386;BME280;24125;47.482;8.770;2023-06-26T12:08:38;96368.84;;;34.00;74.13
36386;BME280;24125;47.482;8.770;2023-06-26T12:11:12;96354.44;;;33.96;74.39
36386;BME280;24125;47.482;8.770;2023-06-26T12:13:46;96363.41;;;33.91;70.97
36386;BME280;24125;47.482;8.770;2023-06-26T12:16:19;96367.91;;;33.88;73.44
36386;BME280;24125;47.482;8.770;2023-06-26T12:18:57;96360.53;;;33.85;75.79
36386;BME280;24125;47.482;8.770;2023-06-26T12:21:47;96366.28;;;33.82;72.97
36386;BME280;24125;47.482;8.770;2023-06-26T12:24:22;96365.97;;;33.80;75.21
36386;BME280;24125;47.482;8.770;2023-06-26T12:26:55;96365.19;;;33.79;77.42
36386;BME280;24125;47.482;8.770;2023-06-26T12:29:31;96366.59;;;33.75;72.60
36386;BME280;24125;47.482;8.770;2023-06-26T12:32:07;96365.53;;;33.72;78.05
36386;BME280;24125;47.482;8.770;2023-06-26T12:34:40;96360.34;;;33.65;78.53
36386;BME280;24125;47.482;8.770;2023-06-26T12:37:13;96367.78;;;33.59;75.95
36386;BME280;24125;47.482;8.770;2023-06-26T12:39:46;96369.69;;;33.53;75.91
36386;BME280;24125;47.482;8.770;2023-06-26T12:42:20;96363.53;;;33.49;74.18
36386;BME280;24125;47.482;8.770;2023-06-26T12:44:54;96378.34;;;33.46;76.13
36386;BME280;24125;47.482;8.770;2023-06-26T12:47:28;96370.19;;;33.42;73.26
36386;BME280;24125;47.482;8.770;2023-06-26T12:50:04;96372.66;;;33.40;78.55
36386;BME280;24125;47.482;8.770;2023-06-26T12:52:37;96364.09;;;33.38;75.69
36386;BME280;24125;47.482;8.770;2023-06-26T12:55:10;96362.06;;;33.39;77.12
36386;BME280;24125;47.482;8.770;2023-06-26T12:57:43;96363.31;;;33.38;77.67
36386;BME280;24125;47.482;8.770;2023-06-26T13:00:18;96364.84;;;33.39;76.00
36386;BME280;24125;47.482;8.770;2023-06-26T13:02:51;96369.13;;;33.40;79.89
36386;BME280;24125;47.482;8.770;2023-06-26T13:05:24;96360.84;;;33.40;77.22
36386;BME280;24125;47.482;8.770;2023-06-26T13:07:56;96363.59;;;33.40;79.70
36386;BME280;24125;47.482;8.770;2023-06-26T13:10:32;96363.31;;;33.38;75.76
36386;BME280;24125;47.482;8.770;2023-06-26T13:13:05;96357.03;;;33.37;77.78
36386;BME280;24125;47.482;8.770;2023-06-26T13:15:39;96357.50;;;33.36;79.75
36386;BME280;24125;47.482;8.770;2023-06-26T13:18:12;96355.66;;;33.32;75.99
36386;BME280;24125;47.482;8.770;2023-06-26T13:20:44;96352.13;;;33.32;76.44
36386;BME280;24125;47.482;8.770;2023-06-26T13:23:17;96349.66;;;33.34;76.98
36386;BME280;24125;47.482;8.770;2023-06-26T13:25:50;96354.72;;;33.36;76.76
36386;BME280;24125;47.482;8.770;2023-06-26T13:28:24;96364.38;;;33.40;74.54
36386;BME280;24125;47.482;8.770;2023-06-26T13:30:58;96358.00;;;33.49;75.23
36386;BME280;24125;47.482;8.770;2023-06-26T13:33:31;96352.25;;;33.61;75.61
36386;BME280;24125;47.482;8.770;2023-06-26T13:36:04;96350.75;;;33.75;76.68